createdAt,value
2018-07-17T00:00:18.016Z,22.70
2018-07-17T00:02:46.419Z,22.80
2018-07-17T00:05:15.127Z,22.90
2018-07-17T00:07:43.487Z,22.80
2018-07-17T00:10:11.923Z,22.80
2018-07-17T00:12:40.319Z,22.60
2018-07-17T00:15:08.657Z,22.40
2018-07-17T00:17:37.333Z,22.40
2018-07-17T00:20:05.692Z,22.30
2018-07-17T00:22:34.391Z,21.90
2018-07-17T00:25:02.917Z,21.60
2018-07-17T00:27:31.271Z,21.80
2018-07-17T00:29:59.702Z,21.80
2018-07-17T00:32:28.598Z,21.80
2018-07-17T00:34:57.118Z,22.00
2018-07-17T00:37:25.993Z,22.10
2018-07-17T00:39:54.475Z,22.10
2018-07-17T00:42:22.846Z,22.30
2018-07-17T00:44:51.248Z,22.40
2018-07-17T00:47:19.653Z,22.40
2018-07-17T00:49:48.070Z,22.40
2018-07-17T00:52:16.429Z,22.30
2018-07-17T00:54:45.143Z,22.30
2018-07-17T00:57:14.383Z,22.20
2018-07-17T00:59:42.795Z,22.30
2018-07-17T01:02:16.645Z,22.20
2018-07-17T01:04:50.610Z,22.30
2018-07-17T01:07:24.515Z,22.20
2018-07-17T01:09:58.388Z,22.30
2018-07-17T01:12:26.343Z,22.30
2018-07-17T01:15:09.147Z,22.30
2018-07-17T01:17:37.847Z,22.30
2018-07-17T01:20:06.498Z,22.30
2018-07-17T01:22:34.944Z,22.30
2018-07-17T01:25:03.553Z,22.00
2018-07-17T01:27:31.972Z,21.70
2018-07-17T01:30:00.362Z,22.00
2018-07-17T01:32:28.770Z,22.10
2018-07-17T01:34:57.078Z,22.20
2018-07-17T01:37:25.523Z,22.10
2018-07-17T01:39:53.918Z,22.10
2018-07-17T01:44:50.494Z,22.30
2018-07-17T01:47:18.987Z,22.40
2018-07-17T01:49:47.415Z,22.00
2018-07-17T01:52:15.806Z,21.80
2018-07-17T01:54:44.565Z,21.50
2018-07-17T01:57:13.205Z,21.60
2018-07-17T01:59:41.549Z,21.40
2018-07-17T02:02:09.994Z,21.50
2018-07-17T02:04:38.392Z,21.40
2018-07-17T02:07:06.836Z,21.60
2018-07-17T02:09:35.356Z,21.40
2018-07-17T02:12:04.054Z,20.80
2018-07-17T02:14:32.494Z,20.90
2018-07-17T02:17:01.125Z,21.00
2018-07-17T02:19:29.528Z,20.70
2018-07-17T02:21:58.371Z,21.00
2018-07-17T02:24:26.807Z,20.70
2018-07-17T02:26:55.272Z,20.70
2018-07-17T02:29:23.721Z,20.50
2018-07-17T02:31:53.445Z,20.40
2018-07-17T02:34:22.601Z,20.50
2018-07-17T02:36:52.142Z,20.50
2018-07-17T02:39:21.330Z,20.50
2018-07-17T02:41:50.029Z,20.40
2018-07-17T02:44:18.369Z,20.30
2018-07-17T02:46:47.390Z,20.50
2018-07-17T02:49:15.855Z,20.70
2018-07-17T02:51:44.324Z,20.90
2018-07-17T02:54:12.714Z,20.80
2018-07-17T02:56:41.096Z,20.70
2018-07-17T02:59:09.527Z,20.70
2018-07-17T03:01:37.909Z,20.90
2018-07-17T03:04:06.533Z,20.80
2018-07-17T03:06:34.985Z,20.90
2018-07-17T03:09:03.671Z,20.80
2018-07-17T03:11:32.350Z,20.90
2018-07-17T03:14:00.697Z,20.70
2018-07-17T03:16:29.258Z,20.90
2018-07-17T03:18:57.864Z,20.80
2018-07-17T03:21:26.212Z,20.70
2018-07-17T03:23:54.822Z,20.70
2018-07-17T03:26:23.206Z,20.70
2018-07-17T03:31:20.048Z,20.70
2018-07-17T03:33:48.524Z,20.80
2018-07-17T03:36:16.892Z,20.80
2018-07-17T03:38:45.239Z,20.90
2018-07-17T03:41:13.995Z,20.90
2018-07-17T03:43:42.344Z,21.00
2018-07-17T03:46:10.670Z,20.90
2018-07-17T03:48:39.042Z,20.90
2018-07-17T03:53:35.837Z,21.00
2018-07-17T03:56:04.220Z,20.90
2018-07-17T03:58:32.571Z,20.90
2018-07-17T04:01:01.017Z,20.70
2018-07-17T04:03:29.399Z,20.80
2018-07-17T04:05:57.777Z,20.90
2018-07-17T04:08:26.194Z,20.90
2018-07-17T04:10:54.733Z,20.90
2018-07-17T04:13:23.541Z,20.80
2018-07-17T04:15:51.896Z,20.70
2018-07-17T04:20:48.439Z,20.50
2018-07-17T04:23:17.163Z,20.60
2018-07-17T04:25:45.492Z,20.80
2018-07-17T04:28:14.260Z,20.80
2018-07-17T04:30:42.657Z,20.80
2018-07-17T04:33:11.328Z,20.80
2018-07-17T04:35:40.590Z,20.80
2018-07-17T04:38:08.957Z,20.80
2018-07-17T04:40:37.391Z,20.80
2018-07-17T04:43:05.902Z,20.80
2018-07-17T04:45:34.346Z,20.80
2018-07-17T04:48:02.790Z,20.80
2018-07-17T04:50:31.177Z,20.70
2018-07-17T04:55:27.621Z,20.60
2018-07-17T04:57:56.220Z,20.60
2018-07-17T05:00:24.555Z,20.60
2018-07-17T05:02:52.927Z,20.60
2018-07-17T05:05:21.384Z,20.60
2018-07-17T05:07:49.890Z,20.60
2018-07-17T05:10:18.576Z,20.70
2018-07-17T05:12:47.014Z,20.50
2018-07-17T05:15:15.401Z,20.50
2018-07-17T05:17:43.841Z,20.60
2018-07-17T05:20:12.121Z,20.50
2018-07-17T05:22:40.588Z,20.70
2018-07-17T05:25:09.549Z,20.50
2018-07-17T05:27:37.917Z,20.40
2018-07-17T05:30:06.641Z,20.50
2018-07-17T05:32:35.125Z,20.60
2018-07-17T05:35:03.571Z,20.70
2018-07-17T05:37:31.979Z,20.90
2018-07-17T05:40:00.437Z,20.90
2018-07-17T05:42:29.445Z,20.90
2018-07-17T05:44:58.192Z,20.70
2018-07-17T05:47:26.628Z,20.80
2018-07-17T05:49:55.008Z,20.90
2018-07-17T05:52:23.831Z,20.90
2018-07-17T05:57:20.583Z,21.00
2018-07-17T05:59:49.339Z,20.90
2018-07-17T06:02:18.375Z,20.90
2018-07-17T06:04:46.846Z,21.10
2018-07-17T06:07:15.536Z,21.00
2018-07-17T06:09:44.015Z,21.00
2018-07-17T06:12:12.358Z,21.00
2018-07-17T06:14:41.565Z,21.10
2018-07-17T06:17:09.927Z,21.10
2018-07-17T06:19:38.680Z,21.30
2018-07-17T06:22:07.719Z,21.20
2018-07-17T06:24:37.419Z,21.20
2018-07-17T06:29:34.258Z,21.50
2018-07-17T06:32:02.709Z,21.70
2018-07-17T06:34:31.488Z,21.60
2018-07-17T06:36:59.941Z,21.60
2018-07-17T06:39:28.716Z,21.40
2018-07-17T06:41:57.368Z,21.50
2018-07-17T06:44:25.878Z,21.50
2018-07-17T06:46:54.268Z,21.60
2018-07-17T06:49:22.744Z,21.80
2018-07-17T06:51:51.176Z,21.80
2018-07-17T06:54:19.586Z,21.70
2018-07-17T06:56:48.752Z,21.80
2018-07-17T06:59:17.184Z,22.00
2018-07-17T07:01:45.721Z,22.10
2018-07-17T07:04:14.726Z,22.40
2018-07-17T07:09:11.652Z,22.40
2018-07-17T07:11:40.021Z,22.60
2018-07-17T07:14:09.123Z,22.70
2018-07-17T07:16:37.489Z,22.80
2018-07-17T07:19:06.228Z,22.80
2018-07-17T07:21:34.651Z,22.90
2018-07-17T07:24:03.313Z,23.20
2018-07-17T07:26:32.040Z,23.40
2018-07-17T07:29:00.415Z,23.70
2018-07-17T07:31:28.805Z,23.60
2018-07-17T07:33:57.206Z,23.60
2018-07-17T07:36:25.543Z,23.90
2018-07-17T07:38:53.977Z,24.10
2018-07-17T07:43:50.485Z,24.30
2018-07-17T07:46:19.044Z,24.30
2018-07-17T07:48:47.600Z,24.30
2018-07-17T07:51:16.265Z,24.30
2018-07-17T07:53:44.682Z,24.20
2018-07-17T07:56:13.061Z,24.30
2018-07-17T07:58:41.412Z,24.50
2018-07-17T08:01:10.193Z,24.80
2018-07-17T08:03:39.332Z,25.00
2018-07-17T08:06:08.237Z,25.00
2018-07-17T08:08:36.638Z,25.00
2018-07-17T08:11:05.115Z,25.20
2018-07-17T08:13:33.492Z,25.10
2018-07-17T08:16:01.909Z,25.10
2018-07-17T08:18:30.451Z,25.10
2018-07-17T08:20:59.256Z,24.90
2018-07-17T08:23:27.853Z,25.00
2018-07-17T08:25:56.392Z,25.20
2018-07-17T08:28:25.185Z,25.50
2018-07-17T08:30:53.801Z,25.80
2018-07-17T08:33:22.273Z,25.80
2018-07-17T08:35:50.722Z,25.90
2018-07-17T08:38:19.176Z,25.90
2018-07-17T08:40:47.709Z,26.00
2018-07-17T08:43:16.344Z,26.10
2018-07-17T08:45:45.040Z,26.20
2018-07-17T08:48:13.611Z,26.50
2018-07-17T08:50:41.968Z,26.50
2018-07-17T08:53:12.026Z,26.50
2018-07-17T08:55:40.540Z,26.60
2018-07-17T08:58:08.995Z,26.80
2018-07-17T09:00:37.403Z,26.70
2018-07-17T09:03:05.769Z,26.50
2018-07-17T09:05:34.225Z,26.60
2018-07-17T09:08:02.571Z,26.90
2018-07-17T09:10:30.989Z,27.00
2018-07-17T09:12:59.341Z,27.40
2018-07-17T09:15:28.088Z,27.40
2018-07-17T09:17:56.526Z,28.00
2018-07-17T09:20:24.913Z,27.70
2018-07-17T09:22:53.288Z,27.70
2018-07-17T09:25:21.687Z,27.40
2018-07-17T09:27:50.107Z,27.40
2018-07-17T09:30:18.493Z,27.60
2018-07-17T09:32:46.797Z,27.60
2018-07-17T09:35:15.217Z,27.10
2018-07-17T09:37:43.614Z,27.60
2018-07-17T09:40:11.948Z,27.90
2018-07-17T09:42:41.102Z,28.20
2018-07-17T09:45:09.603Z,28.50
2018-07-17T09:47:38.063Z,28.70
2018-07-17T09:50:06.529Z,28.90
2018-07-17T09:52:34.954Z,28.10
2018-07-17T09:55:03.327Z,27.50
2018-07-17T09:57:31.778Z,28.10
2018-07-17T10:00:00.209Z,27.60
2018-07-17T10:02:30.258Z,27.70
2018-07-17T10:04:59.558Z,27.10
2018-07-17T10:09:56.272Z,27.20
2018-07-17T10:12:25.525Z,27.10
2018-07-17T10:14:53.964Z,27.20
2018-07-17T10:17:22.384Z,27.00
2018-07-17T10:19:50.768Z,27.60
2018-07-17T10:22:19.158Z,27.00
2018-07-17T10:24:47.794Z,27.10
2018-07-17T10:27:16.194Z,27.60
2018-07-17T10:29:44.589Z,28.20
2018-07-17T10:32:13.019Z,27.40
2018-07-17T10:34:41.364Z,27.30
2018-07-17T10:37:09.760Z,27.80
2018-07-17T10:39:38.146Z,28.70
2018-07-17T10:42:06.668Z,28.10
2018-07-17T10:44:35.209Z,28.50
2018-07-17T10:47:03.702Z,27.80
2018-07-17T10:49:32.357Z,27.50
2018-07-17T10:52:01.068Z,27.80
2018-07-17T10:54:29.501Z,28.10
2018-07-17T10:56:57.933Z,28.10
2018-07-17T10:59:26.951Z,27.70
2018-07-17T11:01:55.378Z,28.30
2018-07-17T11:04:24.162Z,28.40
2018-07-17T11:06:52.627Z,28.10
2018-07-17T11:09:21.590Z,28.10
2018-07-17T11:13:19.469Z,28.50
2018-07-17T11:15:47.867Z,28.80
2018-07-17T11:18:16.360Z,29.30
2018-07-17T11:20:47.407Z,28.60
2018-07-17T11:23:15.748Z,28.50
2018-07-17T11:25:44.190Z,29.60
2018-07-17T11:28:12.652Z,29.30
2018-07-17T11:30:41.061Z,28.60
2018-07-17T11:33:09.540Z,28.10
2018-07-17T11:35:37.928Z,28.10
2018-07-17T11:38:06.877Z,28.00
2018-07-17T11:40:35.201Z,28.60
2018-07-17T11:43:03.640Z,28.30
2018-07-17T11:45:32.066Z,27.90
2018-07-17T11:48:00.444Z,27.70
2018-07-17T11:50:28.803Z,27.40
2018-07-17T11:52:57.238Z,27.60
2018-07-17T11:55:25.862Z,27.20
2018-07-17T11:57:54.238Z,27.00
2018-07-17T12:00:22.640Z,27.10
2018-07-17T12:02:51.632Z,27.10
2018-07-17T12:05:20.024Z,26.90
2018-07-17T12:07:48.424Z,27.50
2018-07-17T12:10:16.841Z,28.20
2018-07-17T12:12:45.288Z,27.50
2018-07-17T12:15:13.655Z,27.50
2018-07-17T12:17:42.009Z,27.30
2018-07-17T12:20:10.526Z,27.10
2018-07-17T12:22:39.152Z,27.30
2018-07-17T12:25:07.554Z,26.90
2018-07-17T12:27:35.922Z,26.90
2018-07-17T12:30:05.238Z,26.70
2018-07-17T12:32:33.650Z,26.60
2018-07-17T12:35:02.223Z,26.60
2018-07-17T12:37:30.670Z,26.80
2018-07-17T12:39:59.081Z,26.90
2018-07-17T12:42:27.691Z,26.80
2018-07-17T12:44:56.026Z,26.90
2018-07-17T12:47:24.422Z,26.70
2018-07-17T12:49:52.827Z,26.60
2018-07-17T12:52:21.161Z,26.70
2018-07-17T12:54:49.696Z,26.60
2018-07-17T12:57:18.109Z,26.60
2018-07-17T12:59:46.506Z,26.80
2018-07-17T13:02:14.967Z,27.40
2018-07-17T13:04:43.409Z,28.10
2018-07-17T13:07:12.042Z,28.10
2018-07-17T13:09:40.575Z,27.90
2018-07-17T13:12:09.002Z,28.10
2018-07-17T13:14:37.435Z,28.30
2018-07-17T13:17:06.399Z,28.30
2018-07-17T13:19:34.885Z,28.60
2018-07-17T13:22:03.356Z,28.60
2018-07-17T13:24:31.778Z,27.90
2018-07-17T13:27:00.162Z,28.10
2018-07-17T13:29:29.313Z,28.80
2018-07-17T13:31:57.727Z,28.70
2018-07-17T13:34:26.627Z,28.70
2018-07-17T13:36:55.049Z,28.70
2018-07-17T13:39:23.581Z,28.70
2018-07-17T13:41:51.949Z,28.30
2018-07-17T13:44:20.345Z,27.90
2018-07-17T13:46:48.721Z,28.00
2018-07-17T13:49:17.135Z,27.90
2018-07-17T13:51:45.521Z,27.50
2018-07-17T13:54:15.148Z,27.40
2018-07-17T13:56:43.538Z,27.40
2018-07-17T13:59:12.421Z,27.20
2018-07-17T14:01:41.146Z,27.40
2018-07-17T14:04:09.500Z,27.20
2018-07-17T14:06:37.949Z,27.50
2018-07-17T14:09:07.954Z,27.50
2018-07-17T14:11:36.499Z,27.50
2018-07-17T14:14:04.944Z,27.70
2018-07-17T14:16:33.377Z,27.50
2018-07-17T14:19:02.011Z,27.40
2018-07-17T14:21:30.452Z,27.10
2018-07-17T14:23:58.798Z,27.10
2018-07-17T14:26:27.220Z,27.40
2018-07-17T14:28:56.281Z,27.30
2018-07-17T14:31:24.672Z,27.10
2018-07-17T14:33:53.081Z,27.00
2018-07-17T14:36:21.477Z,27.00
2018-07-17T14:38:49.871Z,27.20
2018-07-17T14:41:18.268Z,27.20
2018-07-17T14:43:47.010Z,26.70
2018-07-17T14:46:15.461Z,26.80
2018-07-17T14:48:44.500Z,26.70
2018-07-17T14:51:14.038Z,26.90
2018-07-17T14:53:42.414Z,26.90
2018-07-17T14:56:10.959Z,26.70
2018-07-17T14:58:39.880Z,26.50
2018-07-17T15:01:08.216Z,26.40
2018-07-17T15:03:36.637Z,26.20
2018-07-17T15:06:05.037Z,26.30
2018-07-17T15:08:33.520Z,26.10
2018-07-17T15:11:01.889Z,26.10
2018-07-17T15:13:30.562Z,26.10
2018-07-17T15:15:59.037Z,26.00
2018-07-17T15:18:27.352Z,25.90
2018-07-17T15:23:23.853Z,25.90
2018-07-17T15:25:52.241Z,25.90
2018-07-17T15:28:20.617Z,25.80
2018-07-17T15:30:49.018Z,25.80
2018-07-17T15:33:17.726Z,25.60
2018-07-17T15:35:46.392Z,25.50
2018-07-17T15:38:15.072Z,25.50
2018-07-17T15:40:43.412Z,25.40
2018-07-17T15:43:11.889Z,25.50
2018-07-17T15:45:40.332Z,25.50
2018-07-17T15:48:08.736Z,25.30
2018-07-17T15:50:37.156Z,25.20
2018-07-17T15:53:05.618Z,25.30
2018-07-17T15:55:33.989Z,25.30
2018-07-17T15:58:02.364Z,25.30
2018-07-17T16:00:30.777Z,25.20
2018-07-17T16:02:59.158Z,25.10
2018-07-17T16:05:27.564Z,25.10
2018-07-17T16:07:55.984Z,25.00
2018-07-17T16:10:24.401Z,25.00
2018-07-17T16:12:52.794Z,25.20
2018-07-17T16:15:21.272Z,25.00
2018-07-17T16:17:50.066Z,25.20
2018-07-17T16:20:18.524Z,25.00
2018-07-17T16:22:46.920Z,24.90
2018-07-17T16:25:15.400Z,24.80
2018-07-17T16:27:43.828Z,24.50
2018-07-17T16:30:12.260Z,24.60
2018-07-17T16:32:41.316Z,24.50
2018-07-17T16:37:38.442Z,24.30
2018-07-17T16:40:06.847Z,24.50
2018-07-17T16:42:35.618Z,24.50
2018-07-17T16:45:04.071Z,24.30
2018-07-17T16:47:32.534Z,24.40
2018-07-17T16:50:01.018Z,24.30
2018-07-17T16:52:29.620Z,24.30
2018-07-17T16:54:57.989Z,24.40
2018-07-17T16:57:26.437Z,24.20
2018-07-17T16:59:54.881Z,24.00
2018-07-17T17:02:23.947Z,24.00
2018-07-17T17:04:52.364Z,24.20
2018-07-17T17:07:20.805Z,24.00
2018-07-17T17:09:49.888Z,23.90
2018-07-17T17:12:18.296Z,23.90
2018-07-17T17:14:46.782Z,23.90
2018-07-17T17:17:15.133Z,23.90
2018-07-17T17:19:43.760Z,23.80
2018-07-17T17:22:12.421Z,23.70
2018-07-17T17:24:41.433Z,23.80
2018-07-17T17:27:09.693Z,23.90
2018-07-17T17:29:38.085Z,23.60
2018-07-17T17:32:06.781Z,23.50
2018-07-17T17:34:35.178Z,23.60
2018-07-17T17:37:03.644Z,23.40
2018-07-17T17:39:31.985Z,23.60
2018-07-17T17:42:00.706Z,23.60
2018-07-17T17:44:29.089Z,23.70
2018-07-17T17:46:57.486Z,23.60
2018-07-17T17:49:26.129Z,23.70
2018-07-17T17:51:54.910Z,23.60
2018-07-17T17:54:23.654Z,23.50
2018-07-17T17:56:52.086Z,23.30
2018-07-17T17:59:21.049Z,23.20
2018-07-17T18:01:49.533Z,23.30
2018-07-17T18:04:17.903Z,23.20
2018-07-17T18:06:46.732Z,23.10
2018-07-17T18:09:15.782Z,23.20
2018-07-17T18:11:44.232Z,23.30
2018-07-17T18:14:13.652Z,23.20
2018-07-17T18:16:42.018Z,23.20
2018-07-17T18:19:10.458Z,23.20
2018-07-17T18:21:39.239Z,22.90
2018-07-17T18:24:07.642Z,23.00
2018-07-17T18:26:36.192Z,23.10
2018-07-17T18:29:04.594Z,23.00
2018-07-17T18:34:01.001Z,23.10
2018-07-17T18:36:29.437Z,23.20
2018-07-17T18:38:57.811Z,23.20
2018-07-17T18:41:26.285Z,23.20
2018-07-17T18:43:54.902Z,22.90
2018-07-17T18:48:51.322Z,23.00
2018-07-17T18:51:19.697Z,23.10
2018-07-17T18:53:48.160Z,23.10
2018-07-17T18:56:16.755Z,23.10
2018-07-17T18:58:45.316Z,23.10
2018-07-17T19:06:10.342Z,22.80
2018-07-17T19:08:39.057Z,23.00
2018-07-17T19:11:07.545Z,22.90
2018-07-17T19:13:36.065Z,22.90
2018-07-17T19:16:04.991Z,22.90
2018-07-17T19:18:33.477Z,22.70
2018-07-17T19:21:02.105Z,22.80
2018-07-17T19:23:30.669Z,22.90
2018-07-17T19:25:59.028Z,22.80
2018-07-17T19:28:27.799Z,22.70
2018-07-17T19:30:56.197Z,22.70
2018-07-17T19:33:25.764Z,22.70
2018-07-17T19:35:54.300Z,22.70
2018-07-17T19:38:22.675Z,22.60
2018-07-17T19:40:51.200Z,22.60
2018-07-17T19:43:19.902Z,22.70
2018-07-17T19:45:48.312Z,22.70
2018-07-17T19:48:16.785Z,22.70
2018-07-17T19:50:45.228Z,22.70
2018-07-17T19:53:13.687Z,22.60
2018-07-17T19:55:42.197Z,22.60
2018-07-17T19:58:11.032Z,22.50
2018-07-17T20:00:39.601Z,22.50
2018-07-17T20:03:07.996Z,22.50
2018-07-17T20:05:36.443Z,22.40
2018-07-17T20:08:05.411Z,22.30
2018-07-17T20:10:33.764Z,22.40
2018-07-17T20:13:02.207Z,22.40
2018-07-17T20:15:30.637Z,22.30
2018-07-17T20:17:58.961Z,22.20
2018-07-17T20:20:28.221Z,22.40
2018-07-17T20:22:56.884Z,22.30
2018-07-17T20:27:53.936Z,22.30
2018-07-17T20:30:22.301Z,22.40
2018-07-17T20:32:50.680Z,22.40
2018-07-17T20:35:19.037Z,22.30
2018-07-17T20:37:47.392Z,22.10
2018-07-17T20:40:15.737Z,22.10
2018-07-17T20:42:44.112Z,22.00
2018-07-17T20:45:12.496Z,21.90
2018-07-17T20:47:41.707Z,21.90
2018-07-17T20:50:10.096Z,22.00
2018-07-17T20:52:38.712Z,22.10
2018-07-17T20:55:07.146Z,22.10
2018-07-17T20:57:35.828Z,22.10
2018-07-17T21:00:04.770Z,22.10
2018-07-17T21:02:33.149Z,21.80
2018-07-17T21:05:01.604Z,22.00
2018-07-17T21:07:29.932Z,21.80
2018-07-17T21:09:58.244Z,22.00
2018-07-17T21:12:26.931Z,22.00
2018-07-17T21:14:55.402Z,22.00
2018-07-17T21:17:23.796Z,22.00
2018-07-17T21:19:52.166Z,21.90
2018-07-17T21:22:21.458Z,21.80
2018-07-17T21:24:49.872Z,21.80
2018-07-17T21:27:18.277Z,21.60
2018-07-17T21:29:46.750Z,21.70
2018-07-17T21:32:15.174Z,21.70
2018-07-17T21:34:43.602Z,21.60
2018-07-17T21:37:11.968Z,21.70
2018-07-17T21:39:41.681Z,21.70
2018-07-17T21:42:10.060Z,21.80
2018-07-17T21:44:38.392Z,21.70
2018-07-17T21:47:06.499Z,21.70
2018-07-17T21:49:34.877Z,21.70
2018-07-17T21:52:03.606Z,21.70
2018-07-17T21:54:31.974Z,21.70
2018-07-17T21:57:00.309Z,21.60
2018-07-17T21:59:29.069Z,21.60
2018-07-17T22:01:57.542Z,21.50
2018-07-17T22:04:26.089Z,21.40
2018-07-17T22:06:54.547Z,21.40
2018-07-17T22:09:22.940Z,21.30
2018-07-17T22:11:51.642Z,21.40
2018-07-17T22:14:20.064Z,21.40
2018-07-17T22:16:48.380Z,21.40
2018-07-17T22:19:16.706Z,21.40
2018-07-17T22:21:45.049Z,21.40
2018-07-17T22:26:41.525Z,21.40
2018-07-17T22:29:09.868Z,21.20
2018-07-17T22:31:38.248Z,21.30
2018-07-17T22:34:06.585Z,21.40
2018-07-17T22:36:34.926Z,21.30
2018-07-17T22:39:03.905Z,21.30
2018-07-17T22:41:32.409Z,21.20
2018-07-17T22:44:00.862Z,21.20
2018-07-17T22:46:29.252Z,21.20
2018-07-17T22:48:57.573Z,21.10
2018-07-17T22:51:25.933Z,21.20
2018-07-17T22:53:54.591Z,21.10
2018-07-17T22:56:23.061Z,20.90
2018-07-17T22:58:51.389Z,20.70
2018-07-17T23:01:19.850Z,20.70
2018-07-17T23:03:48.256Z,20.70
2018-07-17T23:06:16.714Z,20.60
2018-07-17T23:08:45.124Z,20.60
2018-07-17T23:11:13.455Z,20.50
2018-07-17T23:13:41.901Z,20.40
2018-07-17T23:16:10.261Z,20.30
2018-07-17T23:18:38.633Z,20.30
2018-07-17T23:23:35.017Z,20.30
2018-07-17T23:26:03.672Z,20.20
2018-07-17T23:31:00.133Z,20.10
2018-07-17T23:33:28.493Z,20.10
2018-07-17T23:35:56.949Z,20.10
2018-07-17T23:38:25.311Z,20.10
2018-07-17T23:40:53.699Z,20.00
2018-07-17T23:43:22.427Z,20.00
2018-07-17T23:45:50.808Z,19.90
2018-07-17T23:48:19.186Z,19.80
2018-07-17T23:50:47.626Z,19.80
2018-07-17T23:53:16.342Z,19.70
2018-07-17T23:55:44.873Z,19.30
